Aeroporto :
LOGIN :

Iscrizione | Disclaimer

   EN    FR    IT 

 










Sommario :    VFR   VFR Marginale   IFR   IFR Intensivo   IFR Molto Intensivo
Visibilità : 
Base nubi : 
>= 8 km
>= 3000ft
5 / 8 km
1000 / 3000 ft
1500m / 5 km
500 / 1000 ft
800 / 1500m
200 / 500 ft
< 800m
< 200 ft
Simboli :   Temporali  Nebbia  Neve Forte  Precipitazioni Forti  Vento > 20 kt
SIGMETs :   Varie  Temporali  Ghiacco  Turbolenza  Onda orograficha  Ceneri Vulcaniche






- Altitudine del aeroporto : 1791 ft
- Codice IATA : AOT


LIMW - Aosta

ULTIMO METAR :
  • 271050Z AUTO 25017KT 9999 NCD 21/M02 Q1002

METARs OBSOLETI :
  • 271020Z AUTO 25018KT 220V280 9999 NCD 20/M02 Q1002
  • 270950Z AUTO 25018KT 9999 NCD 19/M02 Q1002
  • 270850Z AUTO 25018KT 9999 NCD 19/M01 Q1002

TAF TAF LIMW
Valido dal 27 a 09 ore il 27 a 18 ore UTC


270800Z 2709/2718 28013KT 9999 FEW060



MetMap, La meteo Aeronautica in un colpo d'occhio ! - Copyright ORBIFLY Dicembre 2007 - Disclaimer

ORBIFLY MET'MAP TEAM :

Programmazione e sviluppo : Alexandra Zaïnal
Concezione : Baudouin d'Aumeries
Supporto tecnico e logistico : Manuel Goepfert
Aiuto : Marc-Olivier Méhu
Aiuto per la traduzione : Arnaldo La Scala




FONTI E CREDITI :

   NOAA